Time;durP1;ratioP1;P1;durP2;ratioP2;P2;SDS_P1;SDS_P2;PMS_P1;PMS_P2;Temp;Humidity;BMP_temperature;BMP_pressure;BME280_temperature;BME280_humidity;BME280_pressure;Samples;Min_cycle;Max_cycle;Signal;HPM_P1;HPM_P2
2023/11/27 00:04:14;;;;;;;11.52;5.72;;;;;;;5.43;100.00;100397.53;5018539;28;20050;-81
2023/11/27 00:06:40;;;;;;;7.30;5.38;;;;;;;5.43;99.51;100388.94;5020746;28;20064;-81
2023/11/27 00:09:07;;;;;;;8.52;5.28;;;;;;;5.36;99.34;100372.22;5025018;28;20146;-81
2023/11/27 00:11:37;;;;;;;9.98;5.35;;;;;;;5.38;99.39;100378.94;5020205;28;20042;-81
2023/11/27 00:14:06;;;;;;;8.80;5.03;;;;;;;5.44;99.44;100367.22;5019589;28;20131;-80
2023/11/27 00:16:32;;;;;;;7.82;5.38;;;;;;;5.43;99.26;100365.56;5018627;28;20050;-81
2023/11/27 00:18:59;;;;;;;10.30;5.43;;;;;;;5.44;99.57;100368.03;5018045;28;20050;-80
2023/11/27 00:21:25;;;;;;;10.05;5.57;;;;;;;5.41;99.70;100363.13;5017254;28;20532;-80
2023/11/27 00:23:52;;;;;;;9.82;4.97;;;;;;;5.38;99.12;100353.00;5016079;28;20152;-80
2023/11/27 00:26:19;;;;;;;8.98;5.20;;;;;;;5.47;99.46;100360.00;5017674;28;20120;-80
2023/11/27 00:28:46;;;;;;;8.50;5.18;;;;;;;5.54;99.53;100358.53;5017889;28;20488;-80
2023/11/27 00:31:13;;;;;;;9.77;5.40;;;;;;;5.41;99.16;100346.72;5018040;28;20137;-81
2023/11/27 00:33:41;;;;;;;8.63;5.07;;;;;;;5.37;99.16;100346.16;5017092;28;20124;-81
2023/11/27 00:36:08;;;;;;;9.27;5.10;;;;;;;5.44;98.83;100339.50;5017746;28;20419;-80
2023/11/27 00:38:37;;;;;;;14.50;5.80;;;;;;;5.46;98.90;100339.38;5017394;28;20855;-81
2023/11/27 00:41:04;;;;;;;11.43;5.68;;;;;;;5.37;98.94;100332.34;5017580;28;20096;-80
2023/11/27 00:43:31;;;;;;;14.02;5.60;;;;;;;5.40;98.96;100321.72;5016732;28;20137;-81
2023/11/27 00:46:00;;;;;;;13.55;5.82;;;;;;;5.39;99.23;100323.50;5017664;28;20081;-81
2023/11/27 00:48:26;;;;;;;8.68;6.32;;;;;;;5.35;99.27;100311.72;5017633;28;20081;-80
2023/11/27 00:50:53;;;;;;;8.55;5.85;;;;;;;5.33;99.09;100309.28;5018095;28;20085;-80
2023/11/27 00:53:20;;;;;;;10.05;5.68;;;;;;;5.38;98.86;100310.66;5018014;28;20077;-81
2023/11/27 00:55:46;;;;;;;10.18;5.63;;;;;;;5.34;98.98;100302.31;5017562;28;20128;-81
2023/11/27 00:58:13;;;;;;;10.30;5.93;;;;;;;5.36;98.93;100305.59;5017797;28;20054;-81
2023/11/27 01:00:39;;;;;;;11.98;5.95;;;;;;;5.40;98.83;100299.19;5017878;28;20089;-81
2023/11/27 01:03:07;;;;;;;12.27;6.20;;;;;;;5.36;98.61;100290.03;5016892;28;20551;-81
2023/11/27 01:05:34;;;;;;;8.32;5.50;;;;;;;5.37;98.33;100288.25;5017485;28;20056;-80
2023/11/27 01:08:02;;;;;;;8.63;6.05;;;;;;;5.39;98.25;100275.97;5018671;28;20046;-82
2023/11/27 01:10:31;;;;;;;10.95;5.38;;;;;;;5.43;98.19;100265.19;5022924;28;20057;-81
2023/11/27 01:12:58;;;;;;;11.55;5.57;;;;;;;5.45;98.28;100273.66;5017295;28;20072;-81
2023/11/27 01:15:25;;;;;;;7.38;5.38;;;;;;;5.38;97.67;100263.94;5017156;28;20049;-81
2023/11/27 01:17:51;;;;;;;11.13;5.72;;;;;;;5.38;97.89;100254.38;5017453;28;20108;-81
2023/11/27 01:20:20;;;;;;;13.07;5.70;;;;;;;5.48;97.82;100254.44;5017771;28;20046;-81
2023/11/27 01:22:46;;;;;;;10.70;5.43;;;;;;;5.41;97.36;100243.75;5018239;28;20050;-81
2023/11/27 01:25:13;;;;;;;9.07;5.55;;;;;;;5.47;97.62;100238.03;5017531;28;20045;-81
2023/11/27 01:27:40;;;;;;;9.00;5.65;;;;;;;5.48;97.25;100239.69;5016459;28;20081;-81
2023/11/27 01:30:07;;;;;;;7.22;5.45;;;;;;;5.38;97.18;100227.63;5017214;28;20081;-80
2023/11/27 01:32:34;;;;;;;9.13;5.90;;;;;;;5.41;97.25;100229.94;5016844;28;20101;-81
2023/11/27 01:35:01;;;;;;;10.20;5.70;;;;;;;5.46;97.12;100225.19;5017499;28;20104;-80
2023/11/27 01:37:29;;;;;;;11.57;6.30;;;;;;;5.40;96.67;100220.53;5021970;28;20305;-81
2023/11/27 01:39:58;;;;;;;9.48;5.97;;;;;;;5.32;96.53;100213.41;5022077;28;20100;-81
2023/11/27 01:42:24;;;;;;;10.85;6.55;;;;;;;5.15;96.63;100214.88;5022801;28;20125;-81
2023/11/27 01:44:51;;;;;;;10.40;6.65;;;;;;;5.00;97.10;100206.63;5021079;28;20458;-81
2023/11/27 01:47:18;;;;;;;12.70;7.03;;;;;;;5.10;97.67;100205.84;5029083;28;20139;-81
2023/11/27 01:49:46;;;;;;;12.80;7.55;;;;;;;5.13;98.02;100208.19;5021080;28;20572;-80
2023/11/27 01:52:13;;;;;;;12.85;7.53;;;;;;;5.07;98.74;100203.50;5022005;28;20104;-81
2023/11/27 01:54:43;;;;;;;12.35;7.82;;;;;;;5.13;98.50;100203.00;5021783;28;20092;-81
2023/11/27 01:57:12;;;;;;;10.57;7.78;;;;;;;5.14;98.49;100189.06;5022158;28;20050;-81
2023/11/27 01:59:38;;;;;;;15.10;8.00;;;;;;;5.07;98.56;100187.94;5022639;28;20420;-82
2023/11/27 02:02:06;;;;;;;13.13;8.48;;;;;;;4.99;98.60;100180.81;5023664;28;20074;-82
2023/11/27 02:04:33;;;;;;;14.40;8.00;;;;;;;5.05;99.00;100185.50;5023740;28;20109;-81
2023/11/27 02:07:00;;;;;;;13.13;8.02;;;;;;;5.06;99.15;100181.13;5023529;28;20046;-82
2023/11/27 02:09:26;;;;;;;13.93;8.55;;;;;;;5.11;98.99;100176.38;5022356;28;20077;-81
2023/11/27 02:11:54;;;;;;;12.05;7.78;;;;;;;5.17;99.02;100163.69;5021517;28;20124;-81
2023/11/27 02:14:21;;;;;;;12.93;8.02;;;;;;;5.16;99.33;100159.47;5021917;28;20121;-81
2023/11/27 02:16:49;;;;;;;13.20;8.50;;;;;;;5.26;99.21;100156.84;5014305;28;20127;-81
2023/11/27 02:19:16;;;;;;;12.18;7.95;;;;;;;5.28;99.13;100160.13;5023374;28;20136;-81
2023/11/27 02:21:43;;;;;;;13.27;9.27;;;;;;;5.15;98.48;100149.22;5024336;28;20168;-82
2023/11/27 02:24:11;;;;;;;13.93;9.63;;;;;;;5.31;98.73;100149.50;5024873;28;20056;-80
2023/11/27 02:26:38;;;;;;;11.70;8.63;;;;;;;5.33;98.34;100152.78;5024287;28;20469;-81
2023/11/27 02:29:05;;;;;;;14.13;9.02;;;;;;;5.37;98.70;100145.56;5020004;28;20054;-81
2023/11/27 02:31:32;;;;;;;12.93;8.85;;;;;;;5.26;98.04;100143.88;5019491;28;20065;-80
2023/11/27 02:33:59;;;;;;;17.42;10.23;;;;;;;5.30;98.42;100142.66;5019327;28;20136;-81
2023/11/27 02:36:27;;;;;;;14.88;9.57;;;;;;;5.34;98.54;100133.66;5019385;28;20526;-81
2023/11/27 02:38:54;;;;;;;16.48;9.02;;;;;;;5.35;98.23;100132.72;5019492;28;20494;-81
2023/11/27 02:41:24;;;;;;;15.18;8.75;;;;;;;5.24;97.96;100133.66;5019358;28;20140;-80
2023/11/27 02:43:50;;;;;;;14.35;9.07;;;;;;;5.24;98.53;100133.66;5020369;28;20412;-80
2023/11/27 02:46:17;;;;;;;15.82;9.32;;;;;;;5.30;98.27;100116.72;5019394;28;20064;-81
2023/11/27 02:48:43;;;;;;;16.42;8.82;;;;;;;5.21;98.30;100112.34;5020892;28;20168;-80
2023/11/27 02:51:10;;;;;;;15.35;9.18;;;;;;;5.13;98.03;100105.25;5019458;28;20057;-80
2023/11/27 02:53:37;;;;;;;14.38;8.32;;;;;;;5.16;97.70;100104.16;5020254;28;20045;-81
2023/11/27 02:56:04;;;;;;;10.73;8.35;;;;;;;5.22;98.22;100108.78;5020677;28;20050;-80
2023/11/27 02:58:32;;;;;;;15.55;8.95;;;;;;;5.22;97.87;100095.81;5020336;28;20050;-81
2023/11/27 03:01:01;;;;;;;13.43;8.45;;;;;;;5.10;98.19;100095.16;5019808;28;20049;-80
2023/11/27 03:03:28;;;;;;;15.10;8.98;;;;;;;5.11;98.29;100095.97;5018471;28;20084;-79
2023/11/27 03:05:55;;;;;;;14.35;8.82;;;;;;;5.08;98.33;100088.47;5018221;28;20132;-79
2023/11/27 03:08:20;;;;;;;18.08;9.23;;;;;;;5.08;98.74;100081.50;5018077;28;20080;-78
2023/11/27 03:10:47;;;;;;;15.50;9.65;;;;;;;5.12;99.09;100080.28;5016933;28;20049;-78
2023/11/27 03:13:13;;;;;;;13.63;9.20;;;;;;;5.13;98.79;100074.13;5024591;28;20046;-79
2023/11/27 03:15:41;;;;;;;16.08;10.55;;;;;;;5.07;98.55;100074.66;5021678;28;20129;-79
2023/11/27 03:18:08;;;;;;;17.15;9.23;;;;;;;5.11;98.71;100064.84;5019845;28;20085;-79
2023/11/27 03:20:35;;;;;;;13.38;9.07;;;;;;;5.18;98.94;100065.94;5020919;28;20092;-79
2023/11/27 03:23:01;;;;;;;14.65;8.68;;;;;;;5.21;98.89;100057.88;5018790;28;20128;-79
2023/11/27 03:25:28;;;;;;;15.82;9.45;;;;;;;5.07;98.74;100053.09;5019294;28;20085;-80
2023/11/27 03:27:55;;;;;;;15.95;9.55;;;;;;;5.12;99.04;100048.34;5019253;28;20451;-79
2023/11/27 03:30:22;;;;;;;14.65;9.50;;;;;;;5.12;99.11;100043.16;5018563;28;20101;-79
2023/11/27 03:32:50;;;;;;;16.10;9.15;;;;;;;5.04;99.48;100037.81;5018697;28;20050;-79
2023/11/27 03:35:17;;;;;;;12.20;9.32;;;;;;;5.08;98.83;100034.00;5017983;28;20065;-79
2023/11/27 03:37:44;;;;;;;13.95;9.55;;;;;;;5.06;98.45;100035.91;5017545;28;20060;-79
2023/11/27 03:40:11;;;;;;;17.80;9.63;;;;;;;4.99;99.05;100017.47;5018067;28;20088;-79
2023/11/27 03:42:37;;;;;;;15.57;9.18;;;;;;;5.01;99.22;100015.56;5019100;28;20153;-79
2023/11/27 03:45:05;;;;;;;17.40;9.60;;;;;;;4.94;98.50;100010.09;5018072;28;20110;-80
2023/11/27 03:47:31;;;;;;;12.23;9.15;;;;;;;4.88;98.11;100002.84;5018330;28;20428;-80
2023/11/27 03:49:59;;;;;;;19.73;9.73;;;;;;;4.93;98.26;99999.84;5026830;28;20109;-80
2023/11/27 03:52:26;;;;;;;13.65;8.65;;;;;;;4.97;97.70;100003.81;5022417;28;20074;-80
2023/11/27 03:54:53;;;;;;;15.90;9.27;;;;;;;4.95;98.18;99998.78;5019555;28;20137;-80
2023/11/27 03:57:19;;;;;;;15.50;8.68;;;;;;;4.93;97.89;99987.72;5020344;28;20061;-81
2023/11/27 04:02:13;;;;;;;15.73;9.05;;;;;;;4.89;97.52;99978.56;5030462;28;20049;-79
2023/11/27 04:04:40;;;;;;;15.38;9.20;;;;;;;4.88;97.67;99971.75;5034468;28;20140;-79
2023/11/27 04:07:08;;;;;;;20.75;9.25;;;;;;;4.86;97.33;99968.47;5028983;28;20132;-80
2023/11/27 04:09:35;;;;;;;16.02;8.75;;;;;;;4.97;97.21;99962.34;5031010;28;20112;-80
2023/11/27 04:12:03;;;;;;;16.10;8.65;;;;;;;4.95;97.06;99959.06;5018605;28;20065;-80
2023/11/27 04:14:29;;;;;;;16.45;9.27;;;;;;;4.97;97.13;99957.97;5028440;28;20124;-78
2023/11/27 04:16:56;;;;;;;14.50;8.30;;;;;;;4.95;97.56;99948.69;5026260;28;20092;-77
2023/11/27 04:19:23;;;;;;;14.05;8.15;;;;;;;4.92;96.71;99946.38;5025163;28;20542;-80
2023/11/27 04:21:49;;;;;;;11.85;8.35;;;;;;;4.90;96.52;99943.09;5028087;28;20074;-78
2023/11/27 04:24:17;;;;;;;12.80;7.63;;;;;;;4.97;96.69;99942.41;5029454;28;20049;-77
2023/11/27 04:26:44;;;;;;;12.27;7.72;;;;;;;5.01;96.99;99937.78;5028825;28;20517;-78
2023/11/27 04:29:11;;;;;;;12.32;7.57;;;;;;;5.04;96.86;99934.91;5027653;28;20140;-79
2023/11/27 04:31:40;;;;;;;13.60;7.28;;;;;;;5.00;95.89;99928.34;5027675;28;20077;-78
2023/11/27 04:34:07;;;;;;;10.68;7.50;;;;;;;4.97;96.43;99931.22;5026208;28;20046;-79
2023/11/27 04:36:33;;;;;;;15.88;7.97;;;;;;;5.00;96.61;99931.78;5027886;28;20132;-79
2023/11/27 04:39:00;;;;;;;16.33;8.07;;;;;;;5.03;97.14;99935.03;5027265;28;20472;-79
2023/11/27 04:41:28;;;;;;;10.43;7.25;;;;;;;5.02;96.98;99918.66;5025558;28;20049;-78
2023/11/27 04:43:55;;;;;;;14.02;7.75;;;;;;;4.96;97.19;99914.03;5025832;28;20479;-78
2023/11/27 04:46:21;;;;;;;15.95;8.48;;;;;;;4.92;97.54;99913.50;5025313;28;20083;-78
2023/11/27 04:48:48;;;;;;;13.45;8.13;;;;;;;4.93;98.48;99907.34;5021291;28;20477;-78
2023/11/27 04:51:14;;;;;;;15.18;8.07;;;;;;;4.90;99.08;99912.81;5024296;28;20120;-79
2023/11/27 04:53:41;;;;;;;14.77;8.88;;;;;;;4.83;99.17;99901.34;5027644;28;20581;-77
2023/11/27 04:56:08;;;;;;;12.65;8.50;;;;;;;4.88;99.80;99904.34;5024533;28;20108;-79
2023/11/27 04:58:36;;;;;;;14.10;8.30;;;;;;;4.85;100.00;99902.03;5023425;28;20202;-78
2023/11/27 05:01:04;;;;;;;16.52;8.38;;;;;;;4.90;100.00;99897.25;5028869;28;20178;-78
2023/11/27 05:03:31;;;;;;;13.57;8.07;;;;;;;4.93;100.00;99885.78;5015296;28;20046;-78
2023/11/27 05:05:58;;;;;;;13.73;8.32;;;;;;;4.70;100.00;99890.44;5034295;28;20084;-77
2023/11/27 05:08:25;;;;;;;13.02;8.35;;;;;;;4.75;100.00;99877.88;5035597;28;20053;-79
2023/11/27 05:10:52;;;;;;;15.70;8.38;;;;;;;4.70;100.00;99880.09;5026249;28;20053;-78
2023/11/27 05:13:18;;;;;;;12.48;7.60;;;;;;;4.75;100.00;99870.09;5027350;28;20096;-79
2023/11/27 05:15:46;;;;;;;14.38;9.15;;;;;;;4.78;100.00;99872.41;5027543;28;20136;-81
2023/11/27 05:18:13;;;;;;;13.48;7.57;;;;;;;4.74;100.00;99860.69;5031888;28;20144;-79
2023/11/27 05:20:40;;;;;;;11.93;7.65;;;;;;;4.70;100.00;99851.56;5023999;28;20046;-79
2023/11/27 05:23:07;;;;;;;18.98;8.40;;;;;;;4.66;100.00;99843.25;5018029;28;20075;-79
2023/11/27 05:25:34;;;;;;;13.70;8.75;;;;;;;4.57;100.00;99843.25;5030574;28;20056;-79
2023/11/27 05:28:00;;;;;;;16.45;8.15;;;;;;;4.63;100.00;99838.34;5035023;28;20088;-78
2023/11/27 05:30:27;;;;;;;13.55;8.50;;;;;;;4.59;100.00;99830.97;5033067;28;20057;-79
2023/11/27 05:32:55;;;;;;;13.23;8.20;;;;;;;4.69;100.00;99830.97;5029839;28;20461;-77
2023/11/27 05:35:22;;;;;;;12.48;7.60;;;;;;;4.58;100.00;99824.16;5030195;28;20492;-78
2023/11/27 05:37:49;;;;;;;13.23;9.05;;;;;;;4.49;100.00;99827.56;5023557;28;20435;-79
2023/11/27 05:40:16;;;;;;;18.38;8.32;;;;;;;4.37;100.00;99826.88;5022505;28;20080;-79
2023/11/27 05:42:43;;;;;;;13.98;8.63;;;;;;;4.50;100.00;99814.47;5027091;28;20411;-78
2023/11/27 05:45:10;;;;;;;15.88;9.60;;;;;;;4.48;100.00;99818.16;5013614;28;20068;-78
2023/11/27 05:47:39;;;;;;;17.38;9.00;;;;;;;4.45;100.00;99808.06;5022850;28;20178;-77
2023/11/27 05:50:09;;;;;;;13.50;9.13;;;;;;;4.42;100.00;99803.16;5024687;28;20041;-77
2023/11/27 05:52:36;;;;;;;14.70;8.80;;;;;;;4.40;100.00;99797.31;5022689;28;20056;-78
2023/11/27 05:55:03;;;;;;;15.90;8.27;;;;;;;4.36;100.00;99785.56;5023403;28;20072;-78
2023/11/27 05:57:30;;;;;;;15.15;8.65;;;;;;;4.21;100.00;99791.19;5023167;28;20136;-77
2023/11/27 05:59:57;;;;;;;15.70;9.48;;;;;;;4.23;100.00;99772.91;5017456;28;20416;-78
2023/11/27 06:02:23;;;;;;;21.02;11.45;;;;;;;4.30;100.00;99774.81;5020820;28;20310;-78
2023/11/27 06:04:50;;;;;;;19.52;10.95;;;;;;;4.21;100.00;99767.88;5018714;28;20141;-78
2023/11/27 06:07:19;;;;;;;18.15;8.90;;;;;;;4.20;100.00;99742.94;5020254;28;20244;-79
2023/11/27 06:09:46;;;;;;;16.83;10.05;;;;;;;4.28;100.00;99753.41;5020962;28;20273;-78
2023/11/27 06:12:12;;;;;;;14.50;8.48;;;;;;;4.22;100.00;99730.69;5019474;28;20077;-78
2023/11/27 06:14:40;;;;;;;19.13;8.82;;;;;;;4.19;100.00;99724.94;5021070;28;20045;-78
2023/11/27 06:17:06;;;;;;;15.73;7.53;;;;;;;4.04;100.00;99718.53;5022369;28;20069;-78
2023/11/27 06:19:33;;;;;;;11.10;7.43;;;;;;;4.13;100.00;99715.97;5022640;28;20156;-78
2023/11/27 06:21:59;;;;;;;13.18;7.50;;;;;;;4.23;100.00;99716.78;5025840;28;20145;-78
2023/11/27 06:24:28;;;;;;;15.57;8.48;;;;;;;4.17;100.00;99709.56;5023903;28;20500;-78
2023/11/27 06:26:55;;;;;;;15.50;7.18;;;;;;;4.15;100.00;99703.69;5024565;28;20046;-77
2023/11/27 06:29:22;;;;;;;12.85;7.80;;;;;;;4.07;100.00;99700.97;5028368;28;20084;-79
2023/11/27 06:31:48;;;;;;;19.23;11.48;;;;;;;4.18;100.00;99698.25;5028187;28;20147;-78
2023/11/27 06:34:16;;;;;;;19.65;11.30;;;;;;;4.14;100.00;99694.28;5021980;28;20053;-78
2023/11/27 06:36:42;;;;;;;19.15;8.68;;;;;;;4.04;100.00;99684.88;5023990;28;20431;-78
2023/11/27 06:39:10;;;;;;;11.68;8.25;;;;;;;3.98;100.00;99671.53;5026593;28;20077;-79
2023/11/27 06:41:38;;;;;;;13.88;8.43;;;;;;;4.12;100.00;99669.50;5025716;28;20246;-78
2023/11/27 06:44:07;;;;;;;13.05;7.65;;;;;;;3.94;100.00;99654.66;5021280;28;20108;-78
2023/11/27 06:46:34;;;;;;;12.57;7.32;;;;;;;3.85;100.00;99649.47;5025477;28;20518;-78
2023/11/27 06:49:04;;;;;;;14.68;7.72;;;;;;;3.79;100.00;99644.84;5023451;28;20091;-78
2023/11/27 06:51:30;;;;;;;13.93;7.72;;;;;;;3.75;100.00;99633.16;5024145;28;20057;-79
2023/11/27 06:53:57;;;;;;;14.30;7.78;;;;;;;3.65;100.00;99618.44;5009871;28;20050;-77
2023/11/27 06:56:24;;;;;;;15.63;8.55;;;;;;;3.76;100.00;99624.44;5022955;28;20061;-78
2023/11/27 06:58:52;;;;;;;15.68;9.63;;;;;;;3.69;100.00;99611.22;5023889;28;20066;-78
2023/11/27 07:01:19;;;;;;;15.90;8.60;;;;;;;3.61;100.00;99609.31;5014432;28;20049;-77
2023/11/27 07:03:45;;;;;;;13.13;8.35;;;;;;;3.69;100.00;99603.47;5018598;28;20053;-78
2023/11/27 07:06:12;;;;;;;12.90;8.27;;;;;;;3.62;100.00;99592.84;5020538;28;20061;-78
2023/11/27 07:08:39;;;;;;;12.93;8.40;;;;;;;3.65;100.00;99589.16;5024953;28;20136;-76
2023/11/27 07:11:06;;;;;;;14.68;8.48;;;;;;;3.57;100.00;99589.84;5024234;28;20054;-78
2023/11/27 07:13:34;;;;;;;18.35;8.55;;;;;;;3.72;100.00;99597.19;5020863;28;20041;-78
2023/11/27 07:16:02;;;;;;;19.48;8.70;;;;;;;3.75;100.00;99596.94;5022068;28;20074;-77
2023/11/27 07:18:29;;;;;;;14.55;8.25;;;;;;;3.84;100.00;99590.91;5020112;28;20152;-77
2023/11/27 07:20:57;;;;;;;12.13;7.78;;;;;;;3.75;100.00;99592.56;5015437;28;20049;-81
2023/11/27 07:23:24;;;;;;;19.88;10.95;;;;;;;3.87;100.00;99586.28;5016069;28;20064;-78
2023/11/27 07:25:51;;;;;;;40.92;19.90;;;;;;;3.85;100.00;99584.78;5019731;28;20049;-75
2023/11/27 07:28:18;;;;;;;14.43;8.50;;;;;;;3.67;100.00;99585.50;5025483;28;20041;-78
2023/11/27 07:30:45;;;;;;;11.70;7.68;;;;;;;3.67;100.00;99580.31;5029103;28;20058;-78
2023/11/27 07:33:14;;;;;;;12.98;8.32;;;;;;;3.76;100.00;99583.03;5014153;28;20428;-79
2023/11/27 07:35:41;;;;;;;12.02;8.02;;;;;;;3.58;100.00;99581.13;5025496;28;20041;-79
2023/11/27 07:38:08;;;;;;;12.10;8.32;;;;;;;3.60;100.00;99565.47;5029667;28;20046;-80
2023/11/27 07:40:35;;;;;;;13.82;8.60;;;;;;;3.57;100.00;99571.75;5029698;28;20055;-79
2023/11/27 07:43:02;;;;;;;12.63;7.88;;;;;;;3.49;100.00;99566.44;5021069;28;20073;-79
2023/11/27 07:45:29;;;;;;;15.73;9.38;;;;;;;3.57;100.00;99556.22;5022573;28;20049;-79
2023/11/27 07:47:56;;;;;;;14.40;8.10;;;;;;;3.50;100.00;99554.31;5022612;28;20116;-79
2023/11/27 07:50:24;;;;;;;12.63;9.20;;;;;;;3.53;100.00;99552.28;5026721;28;20045;-79
2023/11/27 07:52:51;;;;;;;11.90;8.50;;;;;;;3.45;100.00;99541.78;5022802;28;20099;-80
2023/11/27 07:55:17;;;;;;;10.45;7.57;;;;;;;3.43;100.00;99545.47;5027115;28;20116;-79
2023/11/27 07:57:45;;;;;;;10.98;7.70;;;;;;;3.44;100.00;99532.41;5021814;28;20168;-78
2023/11/27 08:00:14;;;;;;;13.45;8.52;;;;;;;3.45;100.00;99515.94;5022149;28;20149;-77
2023/11/27 08:02:42;;;;;;;14.88;7.60;;;;;;;3.43;100.00;99515.25;5020389;28;20482;-80
2023/11/27 08:05:09;;;;;;;12.40;8.15;;;;;;;3.41;100.00;99512.00;5010881;28;20046;-79
2023/11/27 08:07:37;;;;;;;15.43;7.93;;;;;;;3.43;100.00;99517.84;5017931;28;20504;-78
2023/11/27 08:10:07;;;;;;;18.35;10.70;;;;;;;3.43;100.00;99512.66;5016731;28;20045;-79
2023/11/27 08:12:36;;;;;;;31.13;14.40;;;;;;;3.39;100.00;99513.91;5019426;28;20057;-80
2023/11/27 08:15:04;;;;;;;36.40;17.55;;;;;;;3.38;100.00;99503.69;5018602;28;20066;-79
2023/11/27 08:17:31;;;;;;;14.48;10.15;;;;;;;3.45;100.00;99508.16;5020083;28;20053;-82
2023/11/27 08:19:57;;;;;;;13.90;8.93;;;;;;;3.45;100.00;99497.81;5021467;28;20045;-80
2023/11/27 08:22:24;;;;;;;17.83;10.40;;;;;;;3.49;100.00;99490.63;5017166;28;20084;-81
2023/11/27 08:24:54;;;;;;;17.65;11.13;;;;;;;3.44;100.00;99498.78;5029296;28;20065;-80
2023/11/27 08:27:26;;;;;;;12.07;7.40;;;;;;;3.42;100.00;99481.78;5036811;28;20514;-80
2023/11/27 08:29:52;;;;;;;11.02;6.97;;;;;;;3.45;100.00;99478.91;5025001;28;20061;-80
2023/11/27 08:32:19;;;;;;;12.82;7.65;;;;;;;3.52;100.00;99474.81;5030232;28;20077;-80
2023/11/27 08:34:46;;;;;;;9.65;6.30;;;;;;;3.54;100.00;99478.91;5033412;28;20038;-79
2023/11/27 08:37:16;;;;;;;11.13;6.45;;;;;;;3.57;100.00;99463.09;5032083;28;20078;-78
2023/11/27 08:39:43;;;;;;;12.13;7.47;;;;;;;3.48;100.00;99455.34;5029621;28;20045;-79
2023/11/27 08:42:11;;;;;;;12.15;6.30;;;;;;;3.47;100.00;99458.91;5025284;28;20516;-79
2023/11/27 08:44:38;;;;;;;10.52;6.28;;;;;;;3.41;100.00;99449.94;5023954;28;20475;-79
2023/11/27 08:47:05;;;;;;;10.55;6.40;;;;;;;3.50;100.00;99454.25;5034012;28;20105;-80
2023/11/27 08:49:35;;;;;;;12.77;7.03;;;;;;;3.56;100.00;99458.06;5035002;28;20052;-80
2023/11/27 08:52:02;;;;;;;12.23;7.15;;;;;;;3.54;100.00;99459.97;5033492;28;20048;-81
2023/11/27 08:54:32;;;;;;;11.75;6.75;;;;;;;3.51;100.00;99448.13;5030165;28;20066;-78
2023/11/27 08:56:59;;;;;;;14.38;6.10;;;;;;;3.54;100.00;99445.28;5023913;28;20057;-77
2023/11/27 08:59:27;;;;;;;10.15;6.20;;;;;;;3.66;100.00;99433.81;5031869;28;20081;-80
2023/11/27 09:01:54;;;;;;;12.73;6.45;;;;;;;3.59;100.00;99427.56;5029513;28;20050;-82
2023/11/27 09:04:22;;;;;;;7.78;5.93;;;;;;;3.55;100.00;99426.22;5028798;28;20050;-81
2023/11/27 09:06:48;;;;;;;10.25;5.95;;;;;;;3.55;100.00;99433.97;5023339;28;20090;-78
2023/11/27 09:09:15;;;;;;;8.10;5.40;;;;;;;3.52;100.00;99416.16;5023627;28;20077;-81
2023/11/27 09:11:42;;;;;;;7.68;5.70;;;;;;;3.67;100.00;99425.09;5023934;28;20046;-80
2023/11/27 09:14:08;;;;;;;8.32;5.47;;;;;;;3.62;100.00;99429.88;5024803;28;20045;-79
2023/11/27 09:16:36;;;;;;;10.70;5.82;;;;;;;3.64;100.00;99416.81;5026670;28;20085;-79
2023/11/27 09:19:03;;;;;;;7.88;5.00;;;;;;;3.62;100.00;99429.88;5021671;28;20112;-82
2023/11/27 09:21:30;;;;;;;6.47;5.03;;;;;;;3.74;100.00;99422.75;5024339;28;20109;-79
2023/11/27 09:23:57;;;;;;;8.02;5.60;;;;;;;3.73;100.00;99407.38;5022991;28;20045;-78
2023/11/27 09:26:23;;;;;;;6.38;4.72;;;;;;;3.74;100.00;99411.59;5022276;28;20123;-78
2023/11/27 09:28:50;;;;;;;6.45;5.13;;;;;;;3.72;100.00;99408.34;5025183;28;20041;-78
2023/11/27 09:31:19;;;;;;;5.32;4.30;;;;;;;3.66;100.00;99400.19;5029800;28;20050;-79
2023/11/27 09:33:47;;;;;;;6.78;4.45;;;;;;;3.83;100.00;99403.78;5032243;28;20076;-79
2023/11/27 09:36:15;;;;;;;7.05;4.50;;;;;;;3.79;100.00;99396.44;5027718;28;20054;-81
2023/11/27 09:38:41;;;;;;;7.40;5.00;;;;;;;3.79;100.00;99388.66;5022237;28;20141;-81
2023/11/27 09:41:09;;;;;;;7.40;4.55;;;;;;;3.82;100.00;99371.09;5019709;28;20061;-80
2023/11/27 09:43:37;;;;;;;5.97;4.20;;;;;;;3.84;100.00;99370.94;5023728;28;20077;-79
2023/11/27 09:46:07;;;;;;;6.00;4.50;;;;;;;3.80;100.00;99367.84;5023063;28;20064;-80
2023/11/27 09:48:39;;;;;;;6.75;4.40;;;;;;;3.81;100.00;99369.47;5025116;28;20045;-80
2023/11/27 09:51:13;;;;;;;8.70;6.00;;;;;;;4.04;100.00;99363.91;5019708;28;20057;-82
2023/11/27 09:53:47;;;;;;;6.10;3.88;;;;;;;4.02;100.00;99356.28;5021347;28;20038;-80
2023/11/27 09:56:14;;;;;;;6.53;4.28;;;;;;;3.96;100.00;99357.69;5030113;28;20053;-80
2023/11/27 09:58:51;;;;;;;5.43;4.00;;;;;;;3.87;100.00;99345.59;5028946;28;20076;-80
2023/11/27 10:01:20;;;;;;;8.18;4.15;;;;;;;3.89;100.00;99340.28;5045840;22;20496;-79
2023/11/27 10:03:47;;;;;;;10.68;4.35;;;;;;;3.90;100.00;99336.72;5017226;28;20109;-80
2023/11/27 10:06:15;;;;;;;6.50;3.90;;;;;;;4.04;100.00;99330.25;5013528;28;20046;-80
2023/11/27 10:08:41;;;;;;;6.07;3.92;;;;;;;3.86;100.00;99317.28;5016423;28;20488;-79
2023/11/27 10:11:08;;;;;;;5.30;3.80;;;;;;;3.90;100.00;99321.22;5017419;28;20046;-79
2023/11/27 10:13:35;;;;;;;6.68;4.10;;;;;;;3.99;100.00;99307.41;4998630;28;20125;-79
2023/11/27 10:16:04;;;;;;;5.72;3.90;;;;;;;3.95;100.00;99308.66;5003328;28;20055;-79
2023/11/27 10:18:31;;;;;;;5.47;3.75;;;;;;;4.04;100.00;99297.41;4999061;28;20074;-80
2023/11/27 10:20:58;;;;;;;7.50;5.90;;;;;;;4.21;100.00;99299.22;4996754;28;20149;-78
2023/11/27 10:23:27;;;;;;;5.75;3.85;;;;;;;4.18;100.00;99291.75;5004028;28;20132;-78
2023/11/27 10:25:56;;;;;;;8.98;5.30;;;;;;;4.21;100.00;99283.69;4998005;28;20042;-79
2023/11/27 10:28:23;;;;;;;4.97;3.80;;;;;;;4.20;100.00;99270.88;4994483;28;20065;-79
2023/11/27 10:30:50;;;;;;;6.75;3.72;;;;;;;4.19;100.00;99275.25;5000786;28;20477;-80
2023/11/27 10:33:16;;;;;;;4.45;3.55;;;;;;;4.22;100.00;99266.38;4999690;28;20086;-80
2023/11/27 10:35:43;;;;;;;4.25;3.33;;;;;;;3.95;100.00;99251.72;5005486;28;20069;-80
2023/11/27 10:38:15;;;;;;;4.18;3.03;;;;;;;4.22;100.00;99259.41;5004340;28;20497;-80
2023/11/27 10:40:44;;;;;;;6.32;2.95;;;;;;;4.25;100.00;99242.78;5003260;28;20049;-79
2023/11/27 10:43:11;;;;;;;3.95;2.88;;;;;;;4.15;100.00;99232.50;4999421;28;20441;-79
2023/11/27 10:45:39;;;;;;;4.53;3.00;;;;;;;4.23;100.00;99229.97;5009502;28;20044;-80
2023/11/27 10:48:08;;;;;;;5.43;3.17;;;;;;;4.27;100.00;99220.91;5004308;28;20057;-80
2023/11/27 10:50:36;;;;;;;6.35;3.10;;;;;;;4.14;100.00;99209.34;4997628;28;20054;-80
2023/11/27 10:53:04;;;;;;;5.55;2.83;;;;;;;4.29;100.00;99207.81;4996172;28;20047;-79
2023/11/27 10:55:33;;;;;;;5.30;3.05;;;;;;;4.33;100.00;99215.13;5000847;28;20054;-80
2023/11/27 10:58:03;;;;;;;7.00;2.95;;;;;;;4.38;100.00;99212.09;5010694;28;20251;-80
2023/11/27 11:00:32;;;;;;;2.95;2.50;;;;;;;4.25;100.00;99211.69;5000723;28;20050;-80
2023/11/27 11:03:03;;;;;;;6.43;2.97;;;;;;;4.37;100.00;99214.84;5005897;28;20165;-79
2023/11/27 11:05:35;;;;;;;3.88;2.80;;;;;;;4.33;100.00;99206.56;4995418;28;20046;-79
2023/11/27 11:08:06;;;;;;;2.80;2.15;;;;;;;4.25;100.00;99191.78;4994618;28;20078;-79
2023/11/27 11:10:34;;;;;;;4.57;2.92;;;;;;;4.27;100.00;99184.66;4998029;28;20084;-79
2023/11/27 11:13:07;;;;;;;3.65;2.92;;;;;;;4.33;100.00;99178.88;4995500;28;20050;-79
2023/11/27 11:15:41;;;;;;;4.00;2.95;;;;;;;4.39;100.00;99177.47;4997529;28;20091;-79
2023/11/27 11:18:14;;;;;;;3.78;3.17;;;;;;;4.39;100.00;99174.06;4996751;28;20073;-80
2023/11/27 11:21:05;;;;;;;3.13;2.83;;;;;;;4.33;100.00;99181.47;4997813;28;20066;-79
2023/11/27 11:23:41;;;;;;;4.03;3.00;;;;;;;4.30;100.00;99166.25;5005654;28;20053;-79
2023/11/27 11:26:32;;;;;;;4.32;2.78;;;;;;;4.34;100.00;99162.38;5006840;28;20069;-80
2023/11/27 11:29:11;;;;;;;5.70;2.90;;;;;;;4.38;100.00;99151.72;5002955;28;20053;-79
2023/11/27 11:31:43;;;;;;;3.67;2.70;;;;;;;4.26;100.00;99136.44;4998386;28;20056;-79
2023/11/27 11:34:11;;;;;;;5.60;3.13;;;;;;;4.21;100.00;99130.13;4998906;28;20054;-79